Time;durP1;ratioP1;P1;durP2;ratioP2;P2;SDS_P1;SDS_P2;PMS_P1;PMS_P2;Temp;Humidity;BMP_temperature;BMP_pressure;BME280_temperature;BME280_humidity;BME280_pressure;Samples;Min_cycle;Max_cycle;Signal;HPM_P1;HPM_P2
2022/10/06 00:01:01;;;;;;;3.92;3.22;;;;;;;;;;5084324;28;20464;-70
2022/10/06 00:03:29;;;;;;;4.68;3.13;;;;;;;;;;5084073;28;20250;-70
2022/10/06 00:05:58;;;;;;;4.70;3.30;;;;;;;;;;5084097;28;20476;-70
2022/10/06 00:08:26;;;;;;;6.65;3.28;;;;;;;;;;5084098;28;20223;-70
2022/10/06 00:10:54;;;;;;;8.07;3.88;;;;;;;;;;5084247;28;20214;-70
2022/10/06 00:13:20;;;;;;;5.10;3.10;;;;;;;;;;5083953;28;20546;-70
2022/10/06 00:15:47;;;;;;;4.80;3.33;;;;;;;;;;5084227;28;20204;-70
2022/10/06 00:18:13;;;;;;;4.05;3.53;;;;;;;;;;5083864;28;20197;-71
2022/10/06 00:20:42;;;;;;;7.28;3.47;;;;;;;;;;5083824;28;20284;-71
2022/10/06 00:23:08;;;;;;;4.50;2.70;;;;;;;;;;5083572;28;20203;-71
2022/10/06 00:25:36;;;;;;;8.18;3.30;;;;;;;;;;5083724;28;20196;-71
2022/10/06 00:28:02;;;;;;;8.80;3.50;;;;;;;;;;5083899;28;20264;-71
2022/10/06 00:30:30;;;;;;;5.20;3.45;;;;;;;;;;5083462;28;20208;-71
2022/10/06 00:32:56;;;;;;;6.78;3.88;;;;;;;;;;5083595;28;20234;-71
2022/10/06 00:35:23;;;;;;;5.28;3.00;;;;;;;;;;5083505;28;20197;-71
2022/10/06 00:37:49;;;;;;;5.32;3.47;;;;;;;;;;5083707;28;20423;-71
2022/10/06 00:40:16;;;;;;;4.47;3.58;;;;;;;;;;5083587;28;20196;-71
2022/10/06 00:42:51;;;;;;;7.50;3.85;;;;;;;;;;5083223;28;20208;-71
2022/10/06 00:45:18;;;;;;;9.27;4.22;;;;;;;;;;5083317;28;20452;-71
2022/10/06 00:47:45;;;;;;;4.28;3.72;;;;;;;;;;5083247;28;20203;-70
2022/10/06 00:50:12;;;;;;;4.30;3.20;;;;;;;;;;5083435;28;20246;-71
2022/10/06 00:52:39;;;;;;;6.57;3.40;;;;;;;;;;5082332;28;20207;-71
2022/10/06 00:55:08;;;;;;;4.70;3.70;;;;;;;;;;5083391;28;20301;-71
2022/10/06 00:57:35;;;;;;;9.23;4.40;;;;;;;;;;5083032;28;20386;-71
2022/10/06 01:00:03;;;;;;;6.15;3.67;;;;;;;;;;5082949;28;20204;-71
2022/10/06 01:02:33;;;;;;;12.13;4.15;;;;;;;;;;5082904;28;20415;-71
2022/10/06 01:05:02;;;;;;;7.18;3.83;;;;;;;;;;5083284;28;20456;-71
2022/10/06 01:07:29;;;;;;;6.85;3.58;;;;;;;;;;5083218;28;20196;-71
2022/10/06 01:09:55;;;;;;;7.63;4.35;;;;;;;;;;5082851;28;20207;-71
2022/10/06 01:12:22;;;;;;;7.68;3.90;;;;;;;;;;5082495;28;20199;-71
2022/10/06 01:14:49;;;;;;;4.07;3.70;;;;;;;;;;5082802;28;20204;-71
2022/10/06 01:17:20;;;;;;;8.40;3.92;;;;;;;;;;5083033;28;20227;-71
2022/10/06 01:19:48;;;;;;;3.80;3.40;;;;;;;;;;5082822;28;20203;-71
2022/10/06 01:22:15;;;;;;;5.43;3.80;;;;;;;;;;5082350;28;20246;-71
2022/10/06 01:24:43;;;;;;;9.18;3.92;;;;;;;;;;5082676;28;20222;-70
2022/10/06 01:27:11;;;;;;;6.10;3.63;;;;;;;;;;5082376;28;20204;-70
2022/10/06 01:29:38;;;;;;;3.90;3.33;;;;;;;;;;5082367;28;20204;-70
2022/10/06 01:32:04;;;;;;;5.85;4.18;;;;;;;;;;5082452;28;20198;-70
2022/10/06 01:34:30;;;;;;;4.13;3.30;;;;;;;;;;5082219;28;20196;-70
2022/10/06 01:36:57;;;;;;;4.50;3.80;;;;;;;;;;5082538;28;20196;-70
2022/10/06 01:39:23;;;;;;;6.65;3.90;;;;;;;;;;5081731;28;20425;-70
2022/10/06 01:41:51;;;;;;;7.80;4.00;;;;;;;;;;5082384;28;20539;-70
2022/10/06 01:44:17;;;;;;;6.07;3.60;;;;;;;;;;5082345;28;20196;-70
2022/10/06 01:46:43;;;;;;;4.60;3.53;;;;;;;;;;5082316;28;20196;-70
2022/10/06 01:49:09;;;;;;;8.75;4.45;;;;;;;;;;5082053;28;20531;-70
2022/10/06 01:51:36;;;;;;;7.28;4.20;;;;;;;;;;5082326;28;20192;-70
2022/10/06 01:54:02;;;;;;;7.57;4.00;;;;;;;;;;5081865;28;20271;-70
2022/10/06 01:56:28;;;;;;;7.07;3.92;;;;;;;;;;5082686;28;20388;-70
2022/10/06 01:58:56;;;;;;;6.70;3.47;;;;;;;;;;5082105;28;20196;-70
2022/10/06 02:01:22;;;;;;;7.10;3.42;;;;;;;;;;5081946;28;20218;-70
2022/10/06 02:03:48;;;;;;;6.93;3.30;;;;;;;;;;5081141;28;20519;-70
2022/10/06 02:06:15;;;;;;;5.63;2.90;;;;;;;;;;5082181;28;20414;-70
2022/10/06 02:08:41;;;;;;;3.75;3.08;;;;;;;;;;5082068;28;20203;-70
2022/10/06 02:11:08;;;;;;;3.80;2.80;;;;;;;;;;5081974;28;20200;-70
2022/10/06 02:13:35;;;;;;;3.28;2.97;;;;;;;;;;5081928;28;20203;-70
2022/10/06 02:16:05;;;;;;;7.93;3.35;;;;;;;;;;5082200;28;20204;-70
2022/10/06 02:18:31;;;;;;;4.78;2.50;;;;;;;;;;5082096;28;20372;-70
2022/10/06 02:20:58;;;;;;;3.65;3.20;;;;;;;;;;5081971;28;20488;-70
2022/10/06 02:23:24;;;;;;;3.85;3.55;;;;;;;;;;5081903;28;20197;-70
2022/10/06 02:25:57;;;;;;;4.30;2.88;;;;;;;;;;5081976;28;20196;-70
2022/10/06 02:28:23;;;;;;;3.40;3.10;;;;;;;;;;5081798;28;20188;-69
2022/10/06 02:30:49;;;;;;;4.95;3.40;;;;;;;;;;5081733;28;20508;-69
2022/10/06 02:33:17;;;;;;;4.22;3.65;;;;;;;;;;5081639;28;20184;-70
2022/10/06 02:35:44;;;;;;;5.07;3.38;;;;;;;;;;5081710;28;20197;-70
2022/10/06 02:38:10;;;;;;;4.40;3.50;;;;;;;;;;5081750;28;20204;-70
2022/10/06 02:40:36;;;;;;;4.82;3.20;;;;;;;;;;5081660;28;20395;-70
2022/10/06 02:43:03;;;;;;;6.28;3.53;;;;;;;;;;5081318;28;20224;-70
2022/10/06 02:45:29;;;;;;;4.95;2.75;;;;;;;;;;5081579;28;20204;-69
2022/10/06 02:47:56;;;;;;;9.05;3.90;;;;;;;;;;5081871;28;20445;-69
2022/10/06 02:50:24;;;;;;;4.43;3.47;;;;;;;;;;5081773;28;20200;-69
2022/10/06 02:52:50;;;;;;;5.18;3.70;;;;;;;;;;5081547;28;20387;-67
2022/10/06 02:55:16;;;;;;;4.80;3.20;;;;;;;;;;5081672;28;20200;-67
2022/10/06 02:57:42;;;;;;;3.28;2.97;;;;;;;;;;5081989;28;20203;-68
2022/10/06 03:00:10;;;;;;;4.88;3.10;;;;;;;;;;5081793;28;20196;-69
2022/10/06 03:02:36;;;;;;;3.65;3.35;;;;;;;;;;5081417;28;20577;-69
2022/10/06 03:05:03;;;;;;;3.80;3.10;;;;;;;;;;5081754;28;20216;-70
2022/10/06 03:07:30;;;;;;;3.17;2.90;;;;;;;;;;5081541;28;20196;-70
2022/10/06 03:09:56;;;;;;;4.32;3.08;;;;;;;;;;5081502;28;20372;-70
2022/10/06 03:12:23;;;;;;;3.78;3.47;;;;;;;;;;5081152;28;20207;-69
2022/10/06 03:14:49;;;;;;;3.65;3.42;;;;;;;;;;5082598;28;20272;-69
2022/10/06 03:17:15;;;;;;;7.40;3.97;;;;;;;;;;5085208;28;20527;-69
2022/10/06 03:19:42;;;;;;;4.30;3.90;;;;;;;;;;5085156;28;20212;-69
2022/10/06 03:22:09;;;;;;;6.00;3.88;;;;;;;;;;5084848;28;20211;-69
2022/10/06 03:24:36;;;;;;;7.55;4.10;;;;;;;;;;5084773;28;20203;-69
2022/10/06 03:27:03;;;;;;;11.65;3.97;;;;;;;;;;5085006;28;20219;-69
2022/10/06 03:29:29;;;;;;;6.47;3.80;;;;;;;;;;5084904;28;20519;-69
2022/10/06 03:31:56;;;;;;;4.30;3.90;;;;;;;;;;5084872;28;20246;-69
2022/10/06 03:34:22;;;;;;;4.45;4.13;;;;;;;;;;5084480;28;20530;-69
2022/10/06 03:36:49;;;;;;;5.30;3.70;;;;;;;;;;5084887;28;20196;-69
2022/10/06 03:39:15;;;;;;;6.43;4.50;;;;;;;;;;5084604;28;20203;-69
2022/10/06 03:41:43;;;;;;;5.28;4.35;;;;;;;;;;5084818;28;20543;-69
2022/10/06 03:44:09;;;;;;;7.72;4.35;;;;;;;;;;5084445;28;20196;-69
2022/10/06 03:46:36;;;;;;;5.15;4.30;;;;;;;;;;5084575;28;20200;-69
2022/10/06 03:49:02;;;;;;;8.20;4.38;;;;;;;;;;5084488;28;20193;-69
2022/10/06 03:51:30;;;;;;;4.53;4.18;;;;;;;;;;5084740;28;20520;-69
2022/10/06 03:53:56;;;;;;;4.18;3.72;;;;;;;;;;5084330;28;20375;-69
2022/10/06 03:56:24;;;;;;;8.85;4.22;;;;;;;;;;5084598;28;20196;-69
2022/10/06 03:58:52;;;;;;;4.90;3.42;;;;;;;;;;5084630;28;20222;-69
2022/10/06 04:01:19;;;;;;;6.70;3.88;;;;;;;;;;5084459;28;20514;-69
2022/10/06 04:03:46;;;;;;;9.15;4.72;;;;;;;;;;5084116;28;20287;-69
2022/10/06 04:06:13;;;;;;;7.57;4.47;;;;;;;;;;5084139;28;20407;-69
2022/10/06 04:08:40;;;;;;;4.55;3.60;;;;;;;;;;5084084;28;20222;-69
2022/10/06 04:11:06;;;;;;;6.18;4.10;;;;;;;;;;5084527;28;20404;-69
2022/10/06 04:13:33;;;;;;;6.68;4.10;;;;;;;;;;5083954;28;20492;-69
2022/10/06 04:16:08;;;;;;;4.70;4.28;;;;;;;;;;5084192;28;20235;-69
2022/10/06 04:18:34;;;;;;;4.90;4.22;;;;;;;;;;5084092;28;20196;-69
2022/10/06 04:21:01;;;;;;;5.65;4.60;;;;;;;;;;5084046;28;20197;-69
2022/10/06 04:23:27;;;;;;;6.88;5.07;;;;;;;;;;5084004;28;20408;-69
2022/10/06 04:25:57;;;;;;;8.55;5.05;;;;;;;;;;5083438;28;20197;-69
2022/10/06 04:28:24;;;;;;;7.88;4.85;;;;;;;;;;5083389;28;20200;-69
2022/10/06 04:30:55;;;;;;;10.70;5.32;;;;;;;;;;5083780;28;20504;-69
2022/10/06 04:33:22;;;;;;;6.90;4.28;;;;;;;;;;5083411;28;20226;-69
2022/10/06 04:35:55;;;;;;;6.60;5.00;;;;;;;;;;5083839;28;20488;-69
2022/10/06 04:38:22;;;;;;;8.43;5.03;;;;;;;;;;5083701;28;20203;-70
2022/10/06 04:40:48;;;;;;;10.88;5.18;;;;;;;;;;5083813;28;20412;-70
2022/10/06 04:43:14;;;;;;;6.47;4.97;;;;;;;;;;5083451;28;20224;-69
2022/10/06 04:45:41;;;;;;;11.25;5.25;;;;;;;;;;5083390;28;20211;-70
2022/10/06 04:48:07;;;;;;;6.53;4.88;;;;;;;;;;5083291;28;20202;-70
2022/10/06 04:50:34;;;;;;;6.97;4.63;;;;;;;;;;5083598;28;20197;-68
2022/10/06 04:53:01;;;;;;;9.10;4.68;;;;;;;;;;5083224;28;20357;-68
2022/10/06 04:55:27;;;;;;;6.88;4.43;;;;;;;;;;5083496;28;20210;-70
2022/10/06 04:57:54;;;;;;;6.35;4.65;;;;;;;;;;5083297;28;20207;-69
2022/10/06 05:00:24;;;;;;;4.55;4.15;;;;;;;;;;5083373;28;20526;-69
2022/10/06 05:02:50;;;;;;;7.40;4.90;;;;;;;;;;5082984;28;20360;-69
2022/10/06 05:05:16;;;;;;;6.50;4.25;;;;;;;;;;5083075;28;20414;-68
2022/10/06 05:07:45;;;;;;;5.00;4.60;;;;;;;;;;5083398;28;20197;-69
2022/10/06 05:10:11;;;;;;;5.55;4.50;;;;;;;;;;5083064;28;20197;-69
2022/10/06 05:12:37;;;;;;;5.75;3.95;;;;;;;;;;5083373;28;20199;-69
2022/10/06 05:15:04;;;;;;;7.20;4.85;;;;;;;;;;5082826;28;20201;-69
2022/10/06 05:17:30;;;;;;;6.10;4.55;;;;;;;;;;5082948;28;20364;-70
2022/10/06 05:19:56;;;;;;;5.35;4.07;;;;;;;;;;5083042;28;20203;-70
2022/10/06 05:22:23;;;;;;;8.25;4.80;;;;;;;;;;5082691;28;20223;-70
2022/10/06 05:24:52;;;;;;;9.23;4.85;;;;;;;;;;5082605;28;20196;-69
2022/10/06 05:27:19;;;;;;;8.50;4.80;;;;;;;;;;5082753;28;20224;-69
2022/10/06 05:29:45;;;;;;;8.60;5.35;;;;;;;;;;5082404;28;20238;-69
2022/10/06 05:32:11;;;;;;;5.95;4.70;;;;;;;;;;5082550;28;20193;-69
2022/10/06 05:34:37;;;;;;;5.63;4.45;;;;;;;;;;5082235;28;20203;-69
2022/10/06 05:37:04;;;;;;;5.22;4.38;;;;;;;;;;5082362;28;20496;-69
2022/10/06 05:39:30;;;;;;;5.43;4.75;;;;;;;;;;5082500;28;20196;-69
2022/10/06 05:41:58;;;;;;;10.75;5.22;;;;;;;;;;5081768;28;20224;-69
2022/10/06 05:44:24;;;;;;;7.20;4.93;;;;;;;;;;5081549;28;20227;-69
2022/10/06 05:46:50;;;;;;;8.05;4.90;;;;;;;;;;5082095;28;20203;-69
2022/10/06 05:49:16;;;;;;;5.15;4.65;;;;;;;;;;5081971;28;20210;-69
2022/10/06 05:51:43;;;;;;;7.45;5.18;;;;;;;;;;5082626;28;20267;-69
2022/10/06 05:54:09;;;;;;;5.65;5.07;;;;;;;;;;5081572;28;20203;-69
2022/10/06 05:56:36;;;;;;;5.28;4.57;;;;;;;;;;5081866;28;20196;-69
2022/10/06 05:59:04;;;;;;;7.50;4.53;;;;;;;;;;5082075;28;20613;-69
2022/10/06 06:01:31;;;;;;;4.82;4.40;;;;;;;;;;5082178;28;20508;-69
2022/10/06 06:03:59;;;;;;;6.85;4.88;;;;;;;;;;5081983;28;20213;-69
2022/10/06 06:06:27;;;;;;;7.43;4.80;;;;;;;;;;5081936;28;20239;-69
2022/10/06 06:08:54;;;;;;;6.20;5.00;;;;;;;;;;5082138;28;20271;-69
2022/10/06 06:11:24;;;;;;;5.38;4.88;;;;;;;;;;5065729;28;20208;-69
2022/10/06 06:13:50;;;;;;;7.20;4.90;;;;;;;;;;5063138;28;20622;-61
2022/10/06 06:16:17;;;;;;;11.82;7.85;;;;;;;;;;5068678;28;20208;-61
2022/10/06 06:18:43;;;;;;;10.13;5.50;;;;;;;;;;5074318;28;20212;-62
2022/10/06 06:21:10;;;;;;;5.47;4.95;;;;;;;;;;5075693;28;20208;-62
2022/10/06 06:23:37;;;;;;;7.50;4.75;;;;;;;;;;5072728;28;20228;-62
2022/10/06 06:26:05;;;;;;;5.20;4.70;;;;;;;;;;5073288;28;20212;-62
2022/10/06 06:28:32;;;;;;;7.53;4.53;;;;;;;;;;5073212;28;20219;-62
2022/10/06 06:31:01;;;;;;;6.22;4.32;;;;;;;;;;5070393;28;20528;-62
2022/10/06 06:33:29;;;;;;;4.75;4.35;;;;;;;;;;5072634;28;20207;-63
2022/10/06 06:35:56;;;;;;;4.80;4.40;;;;;;;;;;5073079;28;20242;-61
2022/10/06 06:38:22;;;;;;;4.55;4.18;;;;;;;;;;5073262;28;20212;-61
2022/10/06 06:40:49;;;;;;;5.82;3.65;;;;;;;;;;5073785;28;20451;-61
2022/10/06 06:43:16;;;;;;;5.32;4.47;;;;;;;;;;5072850;28;20274;-61
2022/10/06 06:45:42;;;;;;;6.25;4.32;;;;;;;;;;5073276;28;20304;-61
2022/10/06 06:48:13;;;;;;;10.52;4.63;;;;;;;;;;5071481;28;20573;-61
2022/10/06 06:50:40;;;;;;;8.32;4.00;;;;;;;;;;5075112;28;20412;-62
2022/10/06 06:53:07;;;;;;;4.40;4.07;;;;;;;;;;5075612;28;20223;-61
2022/10/06 06:55:33;;;;;;;6.13;4.47;;;;;;;;;;5077042;28;20216;-62
2022/10/06 06:57:59;;;;;;;7.20;4.13;;;;;;;;;;5076901;28;20212;-63
2022/10/06 07:00:26;;;;;;;7.63;4.25;;;;;;;;;;5076796;28;20524;-63
2022/10/06 07:02:54;;;;;;;11.27;4.25;;;;;;;;;;5075950;28;20235;-64
2022/10/06 07:05:21;;;;;;;4.53;4.07;;;;;;;;;;5078766;28;20220;-63
2022/10/06 07:07:48;;;;;;;4.72;4.25;;;;;;;;;;5077177;28;20212;-62
2022/10/06 07:10:15;;;;;;;5.72;4.40;;;;;;;;;;5074312;28;20216;-62
2022/10/06 07:12:44;;;;;;;6.43;4.47;;;;;;;;;;5075040;28;20207;-62
2022/10/06 07:26:07;;;;;;;9.70;4.80;;;;;;;;;;5072781;28;20212;-61
2022/10/06 07:28:33;;;;;;;4.60;4.05;;;;;;;;;;5075326;28;20212;-60
2022/10/06 07:31:00;;;;;;;12.00;4.93;;;;;;;;;;5074573;28;20595;-62
2022/10/06 07:33:28;;;;;;;6.85;4.75;;;;;;;;;;5074052;28;20204;-62
2022/10/06 07:35:54;;;;;;;5.05;4.45;;;;;;;;;;5075351;28;20558;-62
2022/10/06 07:38:24;;;;;;;10.05;4.93;;;;;;;;;;5074777;28;20212;-62
2022/10/06 07:40:55;;;;;;;6.47;4.57;;;;;;;;;;5075469;28;20243;-62
2022/10/06 07:43:21;;;;;;;9.10;4.25;;;;;;;;;;5073567;28;20466;-62
2022/10/06 07:45:48;;;;;;;9.93;4.30;;;;;;;;;;5073679;28;20219;-64
2022/10/06 07:48:16;;;;;;;8.10;4.70;;;;;;;;;;5074909;28;20212;-61
2022/10/06 07:50:44;;;;;;;6.32;4.70;;;;;;;;;;5074554;28;20212;-60
2022/10/06 07:53:10;;;;;;;7.18;4.90;;;;;;;;;;5073695;28;20228;-63
2022/10/06 07:55:38;;;;;;;8.43;4.68;;;;;;;;;;5073340;28;20217;-63
2022/10/06 07:58:09;;;;;;;10.20;4.40;;;;;;;;;;5074866;28;20208;-63
2022/10/06 08:00:35;;;;;;;12.32;4.70;;;;;;;;;;5075924;28;20475;-63
2022/10/06 08:03:02;;;;;;;11.63;4.47;;;;;;;;;;5073935;28;20280;-63
2022/10/06 08:05:28;;;;;;;10.13;4.18;;;;;;;;;;5074957;28;20228;-62
2022/10/06 08:07:55;;;;;;;8.57;4.68;;;;;;;;;;5075185;28;20284;-62
2022/10/06 08:10:21;;;;;;;6.35;4.55;;;;;;;;;;5074240;28;20571;-62
2022/10/06 08:12:57;;;;;;;10.18;4.95;;;;;;;;;;5074266;28;20212;-64
2022/10/06 08:15:24;;;;;;;12.43;4.97;;;;;;;;;;5074229;28;20204;-61
2022/10/06 08:17:52;;;;;;;7.53;4.97;;;;;;;;;;5074555;28;20698;-62
2022/10/06 08:20:19;;;;;;;10.18;4.82;;;;;;;;;;5074058;28;20212;-62
2022/10/06 08:22:47;;;;;;;6.88;4.30;;;;;;;;;;5073569;28;20266;-64
2022/10/06 08:25:13;;;;;;;9.18;4.32;;;;;;;;;;5074665;28;20258;-65
2022/10/06 08:27:43;;;;;;;12.63;4.47;;;;;;;;;;5074523;28;20212;-64
2022/10/06 08:30:09;;;;;;;8.48;4.53;;;;;;;;;;5073599;28;20254;-63
2022/10/06 08:32:37;;;;;;;7.28;4.50;;;;;;;;;;5072331;28;20223;-64
2022/10/06 08:35:04;;;;;;;10.70;4.10;;;;;;;;;;5073575;28;20208;-64
2022/10/06 08:37:31;;;;;;;11.55;4.70;;;;;;;;;;5075651;28;20258;-64
2022/10/06 08:39:57;;;;;;;9.02;4.72;;;;;;;;;;5074365;28;20210;-65
2022/10/06 08:42:30;;;;;;;5.50;4.55;;;;;;;;;;5074005;28;20212;-65
2022/10/06 08:44:59;;;;;;;5.38;4.30;;;;;;;;;;5074540;28;20266;-65
2022/10/06 08:47:27;;;;;;;12.05;4.60;;;;;;;;;;5074139;28;20212;-65
2022/10/06 08:49:55;;;;;;;5.03;4.45;;;;;;;;;;5074719;28;20223;-63
2022/10/06 08:52:26;;;;;;;7.80;4.65;;;;;;;;;;5073172;28;20224;-64
2022/10/06 08:54:57;;;;;;;5.43;4.45;;;;;;;;;;5074220;28;20204;-65
2022/10/06 08:57:26;;;;;;;8.77;5.03;;;;;;;;;;5074637;28;20209;-62
2022/10/06 08:59:53;;;;;;;6.72;5.07;;;;;;;;;;5074262;28;20212;-64
2022/10/06 09:02:26;;;;;;;8.10;4.15;;;;;;;;;;5072847;28;20568;-62
2022/10/06 09:04:52;;;;;;;6.47;3.97;;;;;;;;;;5074524;28;20234;-64
2022/10/06 09:07:22;;;;;;;9.52;4.43;;;;;;;;;;5074434;28;20212;-63
2022/10/06 09:10:02;;;;;;;10.57;3.90;;;;;;;;;;5073560;28;20414;-62
2022/10/06 09:12:32;;;;;;;9.73;4.68;;;;;;;;;;5068862;28;20212;-62
2022/10/06 09:15:05;;;;;;;7.65;4.90;;;;;;;;;;5069012;28;20403;-61
2022/10/06 09:17:34;;;;;;;14.95;5.80;;;;;;;;;;5073625;28;20551;-61
2022/10/06 09:20:02;;;;;;;8.77;4.60;;;;;;;;;;5073511;28;20212;-62
2022/10/06 09:22:31;;;;;;;9.93;4.28;;;;;;;;;;5073278;28;20216;-61
2022/10/06 09:25:00;;;;;;;16.17;5.30;;;;;;;;;;5073077;28;20232;-63
2022/10/06 09:27:31;;;;;;;12.00;4.50;;;;;;;;;;5073536;28;20212;-63
2022/10/06 09:29:58;;;;;;;11.75;4.20;;;;;;;;;;5073086;28;20286;-62
2022/10/06 09:32:26;;;;;;;12.40;4.40;;;;;;;;;;5071832;28;20213;-62
2022/10/06 09:34:55;;;;;;;13.10;3.63;;;;;;;;;;5073321;28;21057;-63
2022/10/06 09:37:22;;;;;;;16.23;4.20;;;;;;;;;;5073044;28;20307;-63
2022/10/06 09:39:50;;;;;;;5.88;2.83;;;;;;;;;;5072252;28;20212;-63
2022/10/06 09:42:18;;;;;;;5.00;2.72;;;;;;;;;;5071998;28;20228;-63
2022/10/06 09:44:51;;;;;;;6.78;2.55;;;;;;;;;;5072900;28;20262;-63
2022/10/06 09:47:23;;;;;;;6.22;2.58;;;;;;;;;;5071689;28;20213;-62
2022/10/06 09:50:02;;;;;;;2.25;2.00;;;;;;;;;;5073101;28;20423;-62
2022/10/06 09:52:28;;;;;;;3.53;1.50;;;;;;;;;;5071889;28;20220;-63
2022/10/06 09:55:05;;;;;;;2.42;1.30;;;;;;;;;;5072499;28;20208;-64
2022/10/06 09:57:32;;;;;;;4.75;1.23;;;;;;;;;;5073260;28;20277;-60
2022/10/06 09:59:58;;;;;;;5.07;1.30;;;;;;;;;;5068470;28;20209;-60
2022/10/06 10:02:30;;;;;;;3.10;1.48;;;;;;;;;;5071642;28;20458;-60
2022/10/06 10:04:57;;;;;;;2.70;1.55;;;;;;;;;;5072785;28;20236;-60
2022/10/06 10:07:24;;;;;;;3.40;1.20;;;;;;;;;;5072470;28;20216;-63
2022/10/06 10:09:50;;;;;;;4.75;1.20;;;;;;;;;;5072481;28;20307;-63
2022/10/06 10:12:26;;;;;;;1.55;1.00;;;;;;;;;;5071267;28;20209;-64
2022/10/06 10:14:53;;;;;;;4.88;1.50;;;;;;;;;;5071985;28;20208;-64
2022/10/06 10:17:22;;;;;;;10.73;1.55;;;;;;;;;;5071735;28;20218;-64
2022/10/06 10:19:51;;;;;;;4.55;3.60;;;;;;;;;;5072867;28;20274;-64
2022/10/06 10:22:21;;;;;;;5.32;1.20;;;;;;;;;;5071703;28;20455;-63
2022/10/06 10:24:54;;;;;;;2.17;1.02;;;;;;;;;;5072643;28;20228;-64
2022/10/06 10:27:23;;;;;;;3.75;2.47;;;;;;;;;;5076665;28;20212;-65
2022/10/06 10:30:00;;;;;;;5.75;1.38;;;;;;;;;;5075935;28;20262;-65
2022/10/06 10:32:34;;;;;;;3.75;1.98;;;;;;;;;;5074285;28;20901;-65
2022/10/06 10:35:03;;;;;;;7.82;4.00;;;;;;;;;;5076139;28;20222;-65
2022/10/06 10:37:33;;;;;;;1.40;1.00;;;;;;;;;;5076553;28;20309;-65
2022/10/06 10:40:01;;;;;;;5.32;1.20;;;;;;;;;;5076153;28;20881;-65
2022/10/06 10:42:33;;;;;;;2.50;1.20;;;;;;;;;;5075243;28;20387;-65
2022/10/06 10:45:03;;;;;;;3.80;1.48;;;;;;;;;;5076152;28;20442;-65
2022/10/06 10:47:33;;;;;;;2.30;1.23;;;;;;;;;;5076653;28;20212;-65
2022/10/06 10:50:05;;;;;;;4.53;1.15;;;;;;;;;;5076447;28;20247;-63
2022/10/06 10:52:34;;;;;;;5.35;1.30;;;;;;;;;;5075716;28;20413;-64
2022/10/06 10:55:05;;;;;;;5.38;1.20;;;;;;;;;;5077676;28;20220;-62
2022/10/06 10:57:35;;;;;;;4.00;1.13;;;;;;;;;;5075986;28;20310;-62
2022/10/06 11:00:04;;;;;;;3.25;1.50;;;;;;;;;;5074085;28;20291;-65
2022/10/06 11:02:32;;;;;;;6.60;1.20;;;;;;;;;;5074778;28;20212;-66
2022/10/06 11:05:01;;;;;;;4.43;1.30;;;;;;;;;;5076886;28;20254;-66
2022/10/06 11:07:29;;;;;;;3.08;1.88;;;;;;;;;;5076937;28;20216;-66
2022/10/06 11:10:00;;;;;;;6.10;1.23;;;;;;;;;;5076140;28;20220;-65
2022/10/06 11:12:35;;;;;;;3.67;1.17;;;;;;;;;;5075726;28;20212;-66
2022/10/06 11:15:05;;;;;;;3.47;1.00;;;;;;;;;;5076210;28;20511;-66
2022/10/06 11:17:38;;;;;;;4.18;0.98;;;;;;;;;;5076100;28;20212;-65
2022/10/06 11:20:12;;;;;;;3.47;1.05;;;;;;;;;;5072847;28;20428;-65
2022/10/06 11:22:43;;;;;;;3.70;1.30;;;;;;;;;;5075074;28;20223;-62
2022/10/06 11:25:18;;;;;;;3.80;1.17;;;;;;;;;;5074715;28;20239;-63
2022/10/06 11:27:51;;;;;;;3.13;1.13;;;;;;;;;;5074900;28;20446;-63
2022/10/06 11:30:19;;;;;;;3.90;1.27;;;;;;;;;;5075436;28;20467;-64
2022/10/06 11:32:51;;;;;;;3.97;1.23;;;;;;;;;;5074873;28;20433;-63
2022/10/06 11:35:18;;;;;;;3.25;1.10;;;;;;;;;;5073510;28;20416;-62
2022/10/06 11:37:46;;;;;;;2.92;1.00;;;;;;;;;;5073373;28;20219;-62
2022/10/06 11:40:22;;;;;;;2.75;0.90;;;;;;;;;;5074497;28;20515;-61
2022/10/06 11:42:52;;;;;;;4.63;1.20;;;;;;;;;;5074839;28;20219;-63
2022/10/06 11:45:23;;;;;;;3.80;0.98;;;;;;;;;;5075521;28;20533;-63
2022/10/06 11:47:58;;;;;;;2.42;1.40;;;;;;;;;;5074714;28;20223;-62
2022/10/06 11:50:35;;;;;;;7.85;1.95;;;;;;;;;;5074056;28;20211;-63
2022/10/06 11:53:01;;;;;;;6.60;2.70;;;;;;;;;;5074287;28;20250;-61
2022/10/06 11:55:30;;;;;;;6.22;1.70;;;;;;;;;;5075208;28;20208;-62
2022/10/06 11:58:10;;;;;;;2.30;1.13;;;;;;;;;;5075338;28;20239;-63
2022/10/06 12:00:41;;;;;;;3.70;1.00;;;;;;;;;;5074935;28;20219;-63
2022/10/06 12:03:29;;;;;;;3.85;1.55;;;;;;;;;;5074298;28;20536;-63
2022/10/06 12:05:56;;;;;;;3.28;1.20;;;;;;;;;;5048338;28;20240;-62
2022/10/06 12:08:34;;;;;;;3.60;1.33;;;;;;;;;;5074590;28;20446;-63
2022/10/06 12:11:00;;;;;;;6.07;1.30;;;;;;;;;;5072025;28;20212;-64
2022/10/06 12:13:33;;;;;;;2.72;1.10;;;;;;;;;;5074376;28;20221;-62
2022/10/06 12:16:11;;;;;;;3.10;1.10;;;;;;;;;;5073954;28;20303;-62
2022/10/06 12:18:43;;;;;;;5.72;1.33;;;;;;;;;;5073367;28;20423;-62
2022/10/06 12:21:24;;;;;;;7.72;1.30;;;;;;;;;;5073667;28;20436;-61
2022/10/06 12:24:02;;;;;;;2.83;0.88;;;;;;;;;;5071481;28;20234;-62
2022/10/06 12:26:35;;;;;;;7.90;1.30;;;;;;;;;;5074499;28;20216;-64
2022/10/06 12:29:11;;;;;;;5.88;1.27;;;;;;;;;;5074174;28;20231;-65
2022/10/06 12:31:46;;;;;;;4.15;1.20;;;;;;;;;;5071698;28;20212;-63
2022/10/06 12:34:33;;;;;;;6.80;1.65;;;;;;;;;;5068887;28;20419;-62
2022/10/06 12:37:14;;;;;;;6.18;1.20;;;;;;;;;;5068892;28;20551;-62
2022/10/06 12:39:41;;;;;;;3.58;1.08;;;;;;;;;;5069674;28;20495;-62
2022/10/06 12:42:08;;;;;;;2.88;0.88;;;;;;;;;;5074833;28;20211;-62
2022/10/06 12:44:37;;;;;;;2.80;1.00;;;;;;;;;;5071108;28;20303;-61
2022/10/06 12:47:10;;;;;;;2.67;1.02;;;;;;;;;;5073587;28;20217;-62
2022/10/06 12:49:41;;;;;;;6.18;2.72;;;;;;;;;;5073893;28;20480;-63
2022/10/06 12:52:12;;;;;;;4.30;2.17;;;;;;;;;;5072933;28;20562;-63
2022/10/06 12:54:43;;;;;;;2.97;1.63;;;;;;;;;;5071375;28;20208;-63
2022/10/06 12:57:17;;;;;;;4.43;1.77;;;;;;;;;;5074670;28;20554;-63
2022/10/06 12:59:43;;;;;;;3.10;1.52;;;;;;;;;;5073105;28;20296;-62
2022/10/06 13:02:14;;;;;;;10.15;1.50;;;;;;;;;;5073028;28;20258;-62
2022/10/06 13:04:43;;;;;;;6.78;1.80;;;;;;;;;;5070771;28;20355;-63
2022/10/06 13:07:13;;;;;;;4.57;0.93;;;;;;;;;;5071020;28;20215;-61
2022/10/06 13:09:39;;;;;;;4.43;1.38;;;;;;;;;;5072886;28;20516;-62
2022/10/06 13:12:33;;;;;;;3.17;1.30;;;;;;;;;;5072091;28;20557;-62
2022/10/06 13:15:08;;;;;;;2.25;1.20;;;;;;;;;;5034109;28;20227;-63
2022/10/06 13:17:39;;;;;;;7.28;1.48;;;;;;;;;;5073296;28;20219;-62
2022/10/06 13:20:06;;;;;;;5.65;1.35;;;;;;;;;;5073662;28;20212;-62
2022/10/06 13:22:33;;;;;;;4.93;1.15;;;;;;;;;;5072157;28;20278;-62
2022/10/06 13:25:00;;;;;;;3.70;1.33;;;;;;;;;;5071536;28;20422;-61
2022/10/06 13:27:26;;;;;;;4.95;1.30;;;;;;;;;;5074168;28;20212;-61
2022/10/06 13:30:10;;;;;;;8.45;1.63;;;;;;;;;;5073648;28;20420;-62
2022/10/06 13:32:38;;;;;;;5.97;1.80;;;;;;;;;;5068509;28;20287;-62
2022/10/06 13:35:05;;;;;;;3.55;1.35;;;;;;;;;;5072397;28;20283;-62
2022/10/06 13:37:34;;;;;;;4.55;2.25;;;;;;;;;;5072956;28;20216;-62
2022/10/06 13:40:00;;;;;;;3.10;1.40;;;;;;;;;;5073177;28;20219;-62
2022/10/06 13:42:29;;;;;;;8.60;1.42;;;;;;;;;;5072691;28;20219;-62
2022/10/06 13:44:57;;;;;;;6.60;1.70;;;;;;;;;;5070529;28;20228;-62
2022/10/06 13:47:24;;;;;;;4.15;1.10;;;;;;;;;;5073163;28;20216;-66
2022/10/06 13:49:54;;;;;;;5.50;1.33;;;;;;;;;;5070724;28;20208;-65
2022/10/06 13:52:23;;;;;;;3.70;1.08;;;;;;;;;;5070472;28;20268;-65
2022/10/06 13:54:50;;;;;;;5.00;1.13;;;;;;;;;;5071013;28;20205;-65
2022/10/06 13:57:34;;;;;;;1.63;0.90;;;;;;;;;;5074060;28;20222;-66
2022/10/06 14:00:05;;;;;;;4.65;1.13;;;;;;;;;;5075870;28;20214;-66
2022/10/06 14:02:32;;;;;;;2.60;1.25;;;;;;;;;;5075701;28;20709;-66
2022/10/06 14:05:17;;;;;;;3.22;1.02;;;;;;;;;;5074031;28;20232;-66
2022/10/06 14:07:44;;;;;;;4.03;1.30;;;;;;;;;;5075466;28;20501;-66
2022/10/06 14:10:14;;;;;;;1.35;1.10;;;;;;;;;;5075217;28;20211;-66
2022/10/06 14:12:43;;;;;;;7.63;1.20;;;;;;;;;;5075518;28;21169;-66
2022/10/06 14:15:15;;;;;;;7.40;1.40;;;;;;;;;;5074147;28;20211;-66
2022/10/06 14:17:42;;;;;;;5.53;1.63;;;;;;;;;;5075965;28;20203;-65
2022/10/06 14:20:23;;;;;;;6.22;1.35;;;;;;;;;;5076517;28;20316;-65
2022/10/06 14:22:51;;;;;;;4.13;1.45;;;;;;;;;;5073931;28;20216;-65
2022/10/06 14:25:18;;;;;;;3.67;1.45;;;;;;;;;;5074501;28;20228;-65
2022/10/06 14:27:44;;;;;;;5.13;1.35;;;;;;;;;;5075724;28;20516;-65
2022/10/06 14:30:11;;;;;;;2.45;1.40;;;;;;;;;;5076170;28;20208;-65
2022/10/06 14:32:38;;;;;;;4.68;1.48;;;;;;;;;;5075390;28;20546;-65
2022/10/06 14:35:06;;;;;;;6.57;1.50;;;;;;;;;;5074332;28;20298;-65
2022/10/06 14:37:33;;;;;;;8.00;2.17;;;;;;;;;;5076185;28;20419;-65
2022/10/06 14:40:01;;;;;;;4.80;2.08;;;;;;;;;;5071981;28;20276;-65
2022/10/06 14:42:27;;;;;;;3.88;1.95;;;;;;;;;;5075924;28;20212;-65
2022/10/06 14:44:53;;;;;;;4.60;1.70;;;;;;;;;;5074405;28;20443;-65
2022/10/06 14:47:19;;;;;;;6.60;2.20;;;;;;;;;;5075887;28;20208;-65
2022/10/06 14:49:46;;;;;;;4.90;1.67;;;;;;;;;;5076609;28;20218;-65
2022/10/06 14:52:13;;;;;;;7.72;1.90;;;;;;;;;;5075090;28;20520;-65
2022/10/06 14:54:41;;;;;;;6.80;1.80;;;;;;;;;;5075693;28;20408;-65
2022/10/06 14:57:09;;;;;;;6.13;1.80;;;;;;;;;;5076239;28;20208;-65
2022/10/06 14:59:35;;;;;;;5.20;1.65;;;;;;;;;;5075899;28;20212;-65